sensor_id;sensor_type;location;lat;lon;timestamp;P1;durP1;ratioP1;P2;durP2;ratioP2
72649;SDS011;61467;50.674;4.618;2022-12-29T00:01:25;4.65;;;1.30;;
72649;SDS011;61467;50.674;4.618;2022-12-29T00:03:52;3.43;;;0.83;;
72649;SDS011;61467;50.674;4.618;2022-12-29T00:06:19;4.25;;;1.17;;
72649;SDS011;61467;50.674;4.618;2022-12-29T00:08:46;4.28;;;1.00;;
72649;SDS011;61467;50.674;4.618;2022-12-29T00:11:14;3.72;;;0.85;;
72649;SDS011;61467;50.674;4.618;2022-12-29T00:13:44;3.85;;;0.95;;
72649;SDS011;61467;50.674;4.618;2022-12-29T00:16:28;2.77;;;0.60;;
72649;SDS011;61467;50.674;4.618;2022-12-29T00:18:56;2.88;;;0.60;;
72649;SDS011;61467;50.674;4.618;2022-12-29T00:21:23;4.43;;;0.80;;
72649;SDS011;61467;50.674;4.618;2022-12-29T00:24:09;2.85;;;0.73;;
72649;SDS011;61467;50.674;4.618;2022-12-29T00:27:11;4.07;;;0.95;;
72649;SDS011;61467;50.674;4.618;2022-12-29T00:29:57;3.33;;;0.70;;
72649;SDS011;61467;50.674;4.618;2022-12-29T00:32:42;3.15;;;0.60;;
72649;SDS011;61467;50.674;4.618;2022-12-29T00:35:27;3.08;;;0.80;;
72649;SDS011;61467;50.674;4.618;2022-12-29T00:37:57;3.35;;;0.80;;
72649;SDS011;61467;50.674;4.618;2022-12-29T00:40:45;4.80;;;1.20;;
72649;SDS011;61467;50.674;4.618;2022-12-29T00:43:29;2.93;;;0.50;;
72649;SDS011;61467;50.674;4.618;2022-12-29T00:46:15;3.92;;;0.75;;
72649;SDS011;61467;50.674;4.618;2022-12-29T00:48:44;5.50;;;1.10;;
72649;SDS011;61467;50.674;4.618;2022-12-29T00:51:28;3.83;;;0.75;;
72649;SDS011;61467;50.674;4.618;2022-12-29T00:53:55;4.13;;;1.08;;
72649;SDS011;61467;50.674;4.618;2022-12-29T00:56:22;4.10;;;1.00;;
72649;SDS011;61467;50.674;4.618;2022-12-29T00:58:49;4.82;;;0.80;;
72649;SDS011;61467;50.674;4.618;2022-12-29T01:01:17;3.83;;;0.80;;
72649;SDS011;61467;50.674;4.618;2022-12-29T01:03:44;4.20;;;0.70;;
72649;SDS011;61467;50.674;4.618;2022-12-29T01:06:11;5.13;;;1.08;;
72649;SDS011;61467;50.674;4.618;2022-12-29T01:08:38;3.97;;;0.80;;
72649;SDS011;61467;50.674;4.618;2022-12-29T01:11:05;3.95;;;0.75;;
72649;SDS011;61467;50.674;4.618;2022-12-29T01:13:32;4.53;;;1.00;;
72649;SDS011;61467;50.674;4.618;2022-12-29T01:16:00;6.82;;;0.90;;
72649;SDS011;61467;50.674;4.618;2022-12-29T01:18:28;7.90;;;1.20;;
72649;SDS011;61467;50.674;4.618;2022-12-29T01:20:59;4.97;;;1.10;;
72649;SDS011;61467;50.674;4.618;2022-12-29T01:23:26;6.85;;;0.98;;
72649;SDS011;61467;50.674;4.618;2022-12-29T01:25:53;5.40;;;1.23;;
72649;SDS011;61467;50.674;4.618;2022-12-29T01:28:20;3.53;;;1.08;;
72649;SDS011;61467;50.674;4.618;2022-12-29T01:30:47;5.70;;;1.20;;
72649;SDS011;61467;50.674;4.618;2022-12-29T01:33:14;5.53;;;1.00;;
72649;SDS011;61467;50.674;4.618;2022-12-29T01:35:43;6.13;;;0.82;;
72649;SDS011;61467;50.674;4.618;2022-12-29T01:38:10;4.65;;;1.20;;
72649;SDS011;61467;50.674;4.618;2022-12-29T01:40:42;4.00;;;1.10;;
72649;SDS011;61467;50.674;4.618;2022-12-29T01:43:10;7.60;;;1.20;;
72649;SDS011;61467;50.674;4.618;2022-12-29T01:45:39;4.60;;;0.90;;
72649;SDS011;61467;50.674;4.618;2022-12-29T01:48:10;4.90;;;1.10;;
72649;SDS011;61467;50.674;4.618;2022-12-29T01:50:39;3.28;;;1.20;;
72649;SDS011;61467;50.674;4.618;2022-12-29T01:53:12;3.10;;;0.70;;
72649;SDS011;61467;50.674;4.618;2022-12-29T01:55:45;4.00;;;1.00;;
72649;SDS011;61467;50.674;4.618;2022-12-29T01:58:16;5.60;;;1.10;;
72649;SDS011;61467;50.674;4.618;2022-12-29T02:00:45;6.22;;;1.10;;
72649;SDS011;61467;50.674;4.618;2022-12-29T02:03:12;3.85;;;1.00;;
72649;SDS011;61467;50.674;4.618;2022-12-29T02:05:40;4.63;;;0.73;;
72649;SDS011;61467;50.674;4.618;2022-12-29T02:08:14;4.35;;;1.00;;
72649;SDS011;61467;50.674;4.618;2022-12-29T02:10:41;3.93;;;0.93;;
72649;SDS011;61467;50.674;4.618;2022-12-29T02:13:09;3.88;;;1.00;;
72649;SDS011;61467;50.674;4.618;2022-12-29T02:15:48;4.25;;;1.00;;
72649;SDS011;61467;50.674;4.618;2022-12-29T02:18:26;3.67;;;0.88;;
72649;SDS011;61467;50.674;4.618;2022-12-29T02:21:13;4.50;;;0.95;;
72649;SDS011;61467;50.674;4.618;2022-12-29T02:27:19;3.40;;;0.70;;
72649;SDS011;61467;50.674;4.618;2022-12-29T02:30:07;4.38;;;1.00;;
72649;SDS011;61467;50.674;4.618;2022-12-29T02:32:45;2.88;;;0.70;;
72649;SDS011;61467;50.674;4.618;2022-12-29T02:35:20;3.10;;;0.70;;
72649;SDS011;61467;50.674;4.618;2022-12-29T02:37:58;4.33;;;0.83;;
72649;SDS011;61467;50.674;4.618;2022-12-29T02:40:31;4.03;;;0.90;;
72649;SDS011;61467;50.674;4.618;2022-12-29T02:43:06;3.30;;;0.90;;
72649;SDS011;61467;50.674;4.618;2022-12-29T02:45:42;4.00;;;0.80;;
72649;SDS011;61467;50.674;4.618;2022-12-29T02:48:16;3.72;;;0.88;;
72649;SDS011;61467;50.674;4.618;2022-12-29T02:50:50;3.97;;;0.87;;
72649;SDS011;61467;50.674;4.618;2022-12-29T02:53:23;2.55;;;0.60;;
72649;SDS011;61467;50.674;4.618;2022-12-29T02:56:05;4.05;;;1.05;;
72649;SDS011;61467;50.674;4.618;2022-12-29T02:58:32;5.85;;;1.00;;
72649;SDS011;61467;50.674;4.618;2022-12-29T03:01:03;4.88;;;1.00;;
72649;SDS011;61467;50.674;4.618;2022-12-29T03:03:43;4.00;;;0.70;;
72649;SDS011;61467;50.674;4.618;2022-12-29T03:06:20;3.50;;;0.73;;
72649;SDS011;61467;50.674;4.618;2022-12-29T03:08:59;3.95;;;1.05;;
72649;SDS011;61467;50.674;4.618;2022-12-29T03:11:37;2.85;;;0.65;;
72649;SDS011;61467;50.674;4.618;2022-12-29T03:14:32;4.22;;;0.85;;
72649;SDS011;61467;50.674;4.618;2022-12-29T03:17:23;3.30;;;0.70;;
72649;SDS011;61467;50.674;4.618;2022-12-29T03:19:58;4.20;;;0.77;;
72649;SDS011;61467;50.674;4.618;2022-12-29T03:22:30;5.72;;;0.90;;
72649;SDS011;61467;50.674;4.618;2022-12-29T03:25:02;3.78;;;0.85;;
72649;SDS011;61467;50.674;4.618;2022-12-29T03:27:36;3.90;;;0.90;;
72649;SDS011;61467;50.674;4.618;2022-12-29T03:30:07;3.50;;;0.70;;
72649;SDS011;61467;50.674;4.618;2022-12-29T03:32:36;4.38;;;0.70;;
72649;SDS011;61467;50.674;4.618;2022-12-29T03:35:08;5.85;;;0.80;;
72649;SDS011;61467;50.674;4.618;2022-12-29T03:37:39;4.60;;;0.80;;
72649;SDS011;61467;50.674;4.618;2022-12-29T03:40:09;4.45;;;0.73;;
72649;SDS011;61467;50.674;4.618;2022-12-29T03:42:36;3.33;;;0.67;;
72649;SDS011;61467;50.674;4.618;2022-12-29T03:45:06;4.20;;;0.77;;
72649;SDS011;61467;50.674;4.618;2022-12-29T03:47:33;7.07;;;0.85;;
72649;SDS011;61467;50.674;4.618;2022-12-29T03:50:00;6.38;;;0.60;;
72649;SDS011;61467;50.674;4.618;2022-12-29T03:52:29;3.17;;;0.57;;
72649;SDS011;61467;50.674;4.618;2022-12-29T03:54:55;4.30;;;0.50;;
72649;SDS011;61467;50.674;4.618;2022-12-29T03:57:22;6.18;;;0.77;;
72649;SDS011;61467;50.674;4.618;2022-12-29T03:59:49;2.97;;;1.05;;
72649;SDS011;61467;50.674;4.618;2022-12-29T04:02:16;4.93;;;0.70;;
72649;SDS011;61467;50.674;4.618;2022-12-29T04:04:43;3.88;;;0.70;;
72649;SDS011;61467;50.674;4.618;2022-12-29T04:07:10;7.93;;;0.80;;
72649;SDS011;61467;50.674;4.618;2022-12-29T04:09:38;2.45;;;0.60;;
72649;SDS011;61467;50.674;4.618;2022-12-29T04:12:05;4.45;;;1.08;;
72649;SDS011;61467;50.674;4.618;2022-12-29T04:14:32;4.88;;;0.80;;
72649;SDS011;61467;50.674;4.618;2022-12-29T04:16:59;3.42;;;0.70;;
72649;SDS011;61467;50.674;4.618;2022-12-29T04:19:26;3.83;;;0.60;;
72649;SDS011;61467;50.674;4.618;2022-12-29T04:21:52;3.05;;;0.70;;
72649;SDS011;61467;50.674;4.618;2022-12-29T04:24:20;3.30;;;1.00;;
72649;SDS011;61467;50.674;4.618;2022-12-29T04:26:48;3.72;;;0.90;;
72649;SDS011;61467;50.674;4.618;2022-12-29T04:29:15;4.03;;;0.70;;
72649;SDS011;61467;50.674;4.618;2022-12-29T04:31:42;3.75;;;0.90;;
72649;SDS011;61467;50.674;4.618;2022-12-29T04:34:08;3.88;;;0.90;;
72649;SDS011;61467;50.674;4.618;2022-12-29T04:36:35;5.32;;;0.77;;
72649;SDS011;61467;50.674;4.618;2022-12-29T04:39:02;5.38;;;0.80;;
72649;SDS011;61467;50.674;4.618;2022-12-29T04:41:30;3.53;;;0.60;;
72649;SDS011;61467;50.674;4.618;2022-12-29T04:43:58;4.43;;;0.60;;
72649;SDS011;61467;50.674;4.618;2022-12-29T04:46:25;3.40;;;0.85;;
72649;SDS011;61467;50.674;4.618;2022-12-29T04:48:52;4.10;;;0.70;;
72649;SDS011;61467;50.674;4.618;2022-12-29T04:51:19;5.45;;;1.35;;
72649;SDS011;61467;50.674;4.618;2022-12-29T04:53:46;3.10;;;0.60;;
72649;SDS011;61467;50.674;4.618;2022-12-29T04:56:12;6.75;;;0.80;;
72649;SDS011;61467;50.674;4.618;2022-12-29T04:58:39;5.20;;;0.90;;
72649;SDS011;61467;50.674;4.618;2022-12-29T05:01:07;7.75;;;0.85;;
72649;SDS011;61467;50.674;4.618;2022-12-29T05:03:34;6.50;;;0.80;;
72649;SDS011;61467;50.674;4.618;2022-12-29T05:06:01;5.93;;;0.70;;
72649;SDS011;61467;50.674;4.618;2022-12-29T05:08:28;3.88;;;0.60;;
72649;SDS011;61467;50.674;4.618;2022-12-29T05:10:55;4.32;;;1.35;;
72649;SDS011;61467;50.674;4.618;2022-12-29T05:13:21;4.82;;;0.70;;
72649;SDS011;61467;50.674;4.618;2022-12-29T05:15:49;4.47;;;0.68;;
72649;SDS011;61467;50.674;4.618;2022-12-29T05:18:18;7.87;;;1.00;;
72649;SDS011;61467;50.674;4.618;2022-12-29T05:20:45;7.38;;;0.70;;
72649;SDS011;61467;50.674;4.618;2022-12-29T05:23:13;4.40;;;0.85;;
72649;SDS011;61467;50.674;4.618;2022-12-29T05:25:42;4.22;;;0.65;;
72649;SDS011;61467;50.674;4.618;2022-12-29T05:28:11;6.65;;;0.95;;
72649;SDS011;61467;50.674;4.618;2022-12-29T05:30:38;5.97;;;0.80;;
72649;SDS011;61467;50.674;4.618;2022-12-29T05:33:05;7.18;;;1.02;;
72649;SDS011;61467;50.674;4.618;2022-12-29T05:35:33;4.78;;;0.68;;
72649;SDS011;61467;50.674;4.618;2022-12-29T05:38:00;5.47;;;1.08;;
72649;SDS011;61467;50.674;4.618;2022-12-29T05:40:27;3.10;;;0.50;;
72649;SDS011;61467;50.674;4.618;2022-12-29T05:42:54;3.63;;;0.50;;
72649;SDS011;61467;50.674;4.618;2022-12-29T05:45:21;7.20;;;1.20;;
72649;SDS011;61467;50.674;4.618;2022-12-29T05:47:47;6.38;;;0.80;;
72649;SDS011;61467;50.674;4.618;2022-12-29T05:50:14;4.60;;;0.75;;
72649;SDS011;61467;50.674;4.618;2022-12-29T05:52:42;11.43;;;1.10;;
72649;SDS011;61467;50.674;4.618;2022-12-29T05:55:09;7.23;;;0.90;;
72649;SDS011;61467;50.674;4.618;2022-12-29T05:57:37;6.18;;;0.98;;
72649;SDS011;61467;50.674;4.618;2022-12-29T06:00:04;9.35;;;1.15;;
72649;SDS011;61467;50.674;4.618;2022-12-29T06:02:32;6.60;;;0.95;;
72649;SDS011;61467;50.674;4.618;2022-12-29T06:04:58;6.90;;;0.80;;
72649;SDS011;61467;50.674;4.618;2022-12-29T06:07:25;5.27;;;0.67;;
72649;SDS011;61467;50.674;4.618;2022-12-29T06:09:53;7.35;;;0.98;;
72649;SDS011;61467;50.674;4.618;2022-12-29T06:12:20;6.70;;;1.08;;
72649;SDS011;61467;50.674;4.618;2022-12-29T06:14:47;7.90;;;0.63;;
72649;SDS011;61467;50.674;4.618;2022-12-29T06:17:14;4.47;;;0.80;;
72649;SDS011;61467;50.674;4.618;2022-12-29T06:19:41;9.17;;;1.13;;
72649;SDS011;61467;50.674;4.618;2022-12-29T06:22:09;7.45;;;1.08;;
72649;SDS011;61467;50.674;4.618;2022-12-29T06:24:37;8.23;;;1.08;;
72649;SDS011;61467;50.674;4.618;2022-12-29T06:27:05;4.93;;;0.80;;
72649;SDS011;61467;50.674;4.618;2022-12-29T06:29:32;8.52;;;0.80;;
72649;SDS011;61467;50.674;4.618;2022-12-29T06:32:01;5.60;;;1.00;;
72649;SDS011;61467;50.674;4.618;2022-12-29T06:34:28;5.45;;;0.80;;
72649;SDS011;61467;50.674;4.618;2022-12-29T06:36:55;7.60;;;1.10;;
72649;SDS011;61467;50.674;4.618;2022-12-29T06:39:22;6.82;;;0.80;;
72649;SDS011;61467;50.674;4.618;2022-12-29T06:41:51;6.50;;;0.80;;
72649;SDS011;61467;50.674;4.618;2022-12-29T06:44:19;4.20;;;0.70;;
72649;SDS011;61467;50.674;4.618;2022-12-29T06:46:46;7.22;;;0.88;;
72649;SDS011;61467;50.674;4.618;2022-12-29T06:49:13;6.10;;;1.90;;
72649;SDS011;61467;50.674;4.618;2022-12-29T06:51:40;9.43;;;1.25;;
72649;SDS011;61467;50.674;4.618;2022-12-29T06:54:07;10.68;;;1.40;;
72649;SDS011;61467;50.674;4.618;2022-12-29T06:56:34;7.73;;;1.03;;
72649;SDS011;61467;50.674;4.618;2022-12-29T06:59:01;7.50;;;1.00;;
72649;SDS011;61467;50.674;4.618;2022-12-29T07:01:29;7.18;;;1.48;;
72649;SDS011;61467;50.674;4.618;2022-12-29T07:03:56;9.15;;;1.10;;
72649;SDS011;61467;50.674;4.618;2022-12-29T07:06:23;6.88;;;0.98;;
72649;SDS011;61467;50.674;4.618;2022-12-29T07:08:50;6.73;;;0.60;;
72649;SDS011;61467;50.674;4.618;2022-12-29T07:11:20;6.13;;;0.73;;
72649;SDS011;61467;50.674;4.618;2022-12-29T07:13:47;9.00;;;1.20;;
72649;SDS011;61467;50.674;4.618;2022-12-29T07:16:14;9.55;;;1.00;;
72649;SDS011;61467;50.674;4.618;2022-12-29T07:18:42;7.00;;;1.10;;
72649;SDS011;61467;50.674;4.618;2022-12-29T07:21:09;6.67;;;0.80;;
72649;SDS011;61467;50.674;4.618;2022-12-29T07:23:36;7.03;;;1.15;;
72649;SDS011;61467;50.674;4.618;2022-12-29T07:26:05;9.90;;;1.92;;
72649;SDS011;61467;50.674;4.618;2022-12-29T07:28:34;11.02;;;1.25;;
72649;SDS011;61467;50.674;4.618;2022-12-29T07:31:03;6.18;;;1.23;;
72649;SDS011;61467;50.674;4.618;2022-12-29T07:33:30;7.60;;;1.17;;
72649;SDS011;61467;50.674;4.618;2022-12-29T07:36:00;7.38;;;0.93;;
72649;SDS011;61467;50.674;4.618;2022-12-29T07:38:27;9.23;;;1.10;;
72649;SDS011;61467;50.674;4.618;2022-12-29T07:40:56;7.32;;;0.82;;
72649;SDS011;61467;50.674;4.618;2022-12-29T07:43:24;7.30;;;0.95;;
72649;SDS011;61467;50.674;4.618;2022-12-29T07:45:51;10.10;;;1.50;;
72649;SDS011;61467;50.674;4.618;2022-12-29T07:48:17;8.32;;;1.20;;
72649;SDS011;61467;50.674;4.618;2022-12-29T07:50:44;9.05;;;1.42;;
72649;SDS011;61467;50.674;4.618;2022-12-29T07:53:12;10.15;;;1.20;;
72649;SDS011;61467;50.674;4.618;2022-12-29T07:55:41;9.18;;;1.15;;
72649;SDS011;61467;50.674;4.618;2022-12-29T07:58:08;7.63;;;1.07;;
72649;SDS011;61467;50.674;4.618;2022-12-29T08:00:34;5.45;;;1.00;;
72649;SDS011;61467;50.674;4.618;2022-12-29T08:03:03;6.45;;;1.00;;
72649;SDS011;61467;50.674;4.618;2022-12-29T08:05:30;7.97;;;0.82;;
72649;SDS011;61467;50.674;4.618;2022-12-29T08:07:57;7.75;;;0.90;;
72649;SDS011;61467;50.674;4.618;2022-12-29T08:10:25;9.30;;;1.43;;
72649;SDS011;61467;50.674;4.618;2022-12-29T08:12:52;4.38;;;0.68;;
72649;SDS011;61467;50.674;4.618;2022-12-29T08:15:19;6.35;;;1.33;;
72649;SDS011;61467;50.674;4.618;2022-12-29T08:17:46;7.97;;;0.70;;
72649;SDS011;61467;50.674;4.618;2022-12-29T08:20:13;6.65;;;1.20;;
72649;SDS011;61467;50.674;4.618;2022-12-29T08:22:39;8.77;;;0.97;;
72649;SDS011;61467;50.674;4.618;2022-12-29T08:25:07;9.98;;;1.00;;
72649;SDS011;61467;50.674;4.618;2022-12-29T08:27:35;6.95;;;1.02;;
72649;SDS011;61467;50.674;4.618;2022-12-29T08:30:03;8.13;;;0.90;;
72649;SDS011;61467;50.674;4.618;2022-12-29T08:32:30;9.98;;;1.60;;
72649;SDS011;61467;50.674;4.618;2022-12-29T08:34:57;5.07;;;0.70;;
72649;SDS011;61467;50.674;4.618;2022-12-29T08:37:24;8.02;;;0.90;;
72649;SDS011;61467;50.674;4.618;2022-12-29T08:39:51;7.95;;;1.10;;
72649;SDS011;61467;50.674;4.618;2022-12-29T08:42:18;8.13;;;1.30;;
72649;SDS011;61467;50.674;4.618;2022-12-29T08:44:46;7.25;;;1.35;;
72649;SDS011;61467;50.674;4.618;2022-12-29T08:47:13;6.30;;;1.40;;
72649;SDS011;61467;50.674;4.618;2022-12-29T08:49:40;9.25;;;1.13;;
72649;SDS011;61467;50.674;4.618;2022-12-29T08:52:07;6.28;;;1.48;;
72649;SDS011;61467;50.674;4.618;2022-12-29T08:54:34;6.68;;;0.90;;
72649;SDS011;61467;50.674;4.618;2022-12-29T08:57:01;9.40;;;1.23;;
72649;SDS011;61467;50.674;4.618;2022-12-29T08:59:28;6.63;;;1.00;;
72649;SDS011;61467;50.674;4.618;2022-12-29T09:01:56;7.20;;;1.13;;
72649;SDS011;61467;50.674;4.618;2022-12-29T09:04:23;7.63;;;1.10;;
72649;SDS011;61467;50.674;4.618;2022-12-29T09:06:49;8.55;;;1.40;;
72649;SDS011;61467;50.674;4.618;2022-12-29T09:09:16;8.35;;;1.10;;
72649;SDS011;61467;50.674;4.618;2022-12-29T09:11:43;7.07;;;1.07;;
72649;SDS011;61467;50.674;4.618;2022-12-29T09:14:11;9.02;;;1.48;;
72649;SDS011;61467;50.674;4.618;2022-12-29T09:16:39;9.85;;;1.35;;
72649;SDS011;61467;50.674;4.618;2022-12-29T09:19:25;8.68;;;0.95;;
72649;SDS011;61467;50.674;4.618;2022-12-29T09:21:51;12.00;;;1.83;;
72649;SDS011;61467;50.674;4.618;2022-12-29T09:24:18;8.73;;;0.77;;
72649;SDS011;61467;50.674;4.618;2022-12-29T09:26:45;10.25;;;1.48;;
72649;SDS011;61467;50.674;4.618;2022-12-29T09:29:12;9.35;;;1.15;;
72649;SDS011;61467;50.674;4.618;2022-12-29T09:31:39;9.82;;;1.20;;
72649;SDS011;61467;50.674;4.618;2022-12-29T09:34:06;10.32;;;1.10;;
72649;SDS011;61467;50.674;4.618;2022-12-29T09:36:34;9.17;;;1.50;;
72649;SDS011;61467;50.674;4.618;2022-12-29T09:39:01;8.73;;;1.13;;
72649;SDS011;61467;50.674;4.618;2022-12-29T09:41:29;5.97;;;0.80;;
72649;SDS011;61467;50.674;4.618;2022-12-29T09:44:06;11.48;;;1.23;;
72649;SDS011;61467;50.674;4.618;2022-12-29T09:46:39;8.23;;;0.98;;
72649;SDS011;61467;50.674;4.618;2022-12-29T09:49:15;9.53;;;1.13;;
72649;SDS011;61467;50.674;4.618;2022-12-29T09:51:49;6.97;;;0.98;;
72649;SDS011;61467;50.674;4.618;2022-12-29T09:54:30;9.75;;;1.48;;
72649;SDS011;61467;50.674;4.618;2022-12-29T09:57:10;12.82;;;1.20;;
72649;SDS011;61467;50.674;4.618;2022-12-29T09:59:42;6.10;;;1.00;;
72649;SDS011;61467;50.674;4.618;2022-12-29T10:02:22;6.93;;;1.03;;
72649;SDS011;61467;50.674;4.618;2022-12-29T10:04:55;7.20;;;1.00;;
72649;SDS011;61467;50.674;4.618;2022-12-29T10:07:26;9.18;;;1.85;;
72649;SDS011;61467;50.674;4.618;2022-12-29T10:10:15;9.13;;;1.27;;
72649;SDS011;61467;50.674;4.618;2022-12-29T10:13:00;8.55;;;1.27;;
72649;SDS011;61467;50.674;4.618;2022-12-29T10:15:40;12.90;;;1.23;;
72649;SDS011;61467;50.674;4.618;2022-12-29T10:18:19;12.02;;;1.02;;
72649;SDS011;61467;50.674;4.618;2022-12-29T10:20:56;7.63;;;1.17;;
72649;SDS011;61467;50.674;4.618;2022-12-29T10:23:33;9.93;;;1.30;;
72649;SDS011;61467;50.674;4.618;2022-12-29T10:26:08;9.63;;;1.20;;
72649;SDS011;61467;50.674;4.618;2022-12-29T10:28:38;8.90;;;1.17;;
72649;SDS011;61467;50.674;4.618;2022-12-29T10:31:09;10.85;;;1.33;;
72649;SDS011;61467;50.674;4.618;2022-12-29T10:33:41;13.70;;;1.45;;
72649;SDS011;61467;50.674;4.618;2022-12-29T10:36:15;10.52;;;1.40;;
72649;SDS011;61467;50.674;4.618;2022-12-29T10:38:48;10.00;;;1.38;;
72649;SDS011;61467;50.674;4.618;2022-12-29T10:41:21;11.07;;;1.10;;
72649;SDS011;61467;50.674;4.618;2022-12-29T10:43:54;8.35;;;1.20;;
72649;SDS011;61467;50.674;4.618;2022-12-29T10:46:24;8.90;;;1.20;;
72649;SDS011;61467;50.674;4.618;2022-12-29T10:48:55;7.20;;;1.30;;
72649;SDS011;61467;50.674;4.618;2022-12-29T10:51:22;9.27;;;1.00;;
72649;SDS011;61467;50.674;4.618;2022-12-29T10:53:55;9.70;;;1.43;;
72649;SDS011;61467;50.674;4.618;2022-12-29T10:56:29;9.43;;;1.15;;
72649;SDS011;61467;50.674;4.618;2022-12-29T10:58:59;7.10;;;1.20;;
72649;SDS011;61467;50.674;4.618;2022-12-29T11:01:33;10.55;;;1.05;;
72649;SDS011;61467;50.674;4.618;2022-12-29T11:04:07;8.13;;;1.08;;
72649;SDS011;61467;50.674;4.618;2022-12-29T11:06:50;9.57;;;1.10;;
72649;SDS011;61467;50.674;4.618;2022-12-29T11:09:21;7.20;;;1.02;;
72649;SDS011;61467;50.674;4.618;2022-12-29T11:11:52;8.38;;;1.17;;
72649;SDS011;61467;50.674;4.618;2022-12-29T11:14:20;7.15;;;1.20;;
72649;SDS011;61467;50.674;4.618;2022-12-29T11:16:56;11.60;;;1.50;;
72649;SDS011;61467;50.674;4.618;2022-12-29T11:19:24;11.77;;;1.50;;
72649;SDS011;61467;50.674;4.618;2022-12-29T11:21:53;9.52;;;1.27;;
72649;SDS011;61467;50.674;4.618;2022-12-29T11:24:22;7.45;;;1.25;;
72649;SDS011;61467;50.674;4.618;2022-12-29T11:26:52;8.02;;;1.10;;
72649;SDS011;61467;50.674;4.618;2022-12-29T11:29:23;9.02;;;1.08;;
72649;SDS011;61467;50.674;4.618;2022-12-29T11:31:52;11.57;;;1.00;;
72649;SDS011;61467;50.674;4.618;2022-12-29T11:34:21;8.70;;;1.20;;
72649;SDS011;61467;50.674;4.618;2022-12-29T11:36:51;9.15;;;1.20;;
72649;SDS011;61467;50.674;4.618;2022-12-29T11:39:26;7.35;;;0.98;;
72649;SDS011;61467;50.674;4.618;2022-12-29T11:42:05;8.57;;;1.40;;
72649;SDS011;61467;50.674;4.618;2022-12-29T11:44:42;7.40;;;0.90;;
72649;SDS011;61467;50.674;4.618;2022-12-29T11:47:14;9.38;;;1.10;;
72649;SDS011;61467;50.674;4.618;2022-12-29T11:49:49;8.90;;;1.27;;
72649;SDS011;61467;50.674;4.618;2022-12-29T11:52:20;7.15;;;1.10;;
72649;SDS011;61467;50.674;4.618;2022-12-29T11:54:51;7.07;;;1.20;;
72649;SDS011;61467;50.674;4.618;2022-12-29T11:57:19;7.90;;;1.20;;
72649;SDS011;61467;50.674;4.618;2022-12-29T11:59:49;6.43;;;1.33;;
72649;SDS011;61467;50.674;4.618;2022-12-29T12:02:36;7.85;;;0.98;;
72649;SDS011;61467;50.674;4.618;2022-12-29T12:05:17;10.73;;;1.42;;
72649;SDS011;61467;50.674;4.618;2022-12-29T12:07:50;9.38;;;1.25;;
72649;SDS011;61467;50.674;4.618;2022-12-29T12:10:25;10.00;;;2.20;;
72649;SDS011;61467;50.674;4.618;2022-12-29T12:12:58;9.18;;;1.42;;
72649;SDS011;61467;50.674;4.618;2022-12-29T12:15:31;7.03;;;1.10;;
72649;SDS011;61467;50.674;4.618;2022-12-29T12:18:05;8.23;;;1.35;;
72649;SDS011;61467;50.674;4.618;2022-12-29T12:20:42;10.65;;;1.40;;
72649;SDS011;61467;50.674;4.618;2022-12-29T12:23:19;6.07;;;1.30;;
72649;SDS011;61467;50.674;4.618;2022-12-29T12:25:59;5.78;;;1.00;;
72649;SDS011;61467;50.674;4.618;2022-12-29T12:28:33;8.27;;;1.40;;
72649;SDS011;61467;50.674;4.618;2022-12-29T12:31:06;8.88;;;1.00;;
72649;SDS011;61467;50.674;4.618;2022-12-29T12:33:45;9.50;;;0.82;;
72649;SDS011;61467;50.674;4.618;2022-12-29T12:36:21;8.67;;;1.57;;
72649;SDS011;61467;50.674;4.618;2022-12-29T12:38:58;10.90;;;1.35;;
72649;SDS011;61467;50.674;4.618;2022-12-29T12:41:32;9.05;;;1.75;;
72649;SDS011;61467;50.674;4.618;2022-12-29T12:44:12;13.18;;;1.58;;
72649;SDS011;61467;50.674;4.618;2022-12-29T12:46:48;11.40;;;1.60;;
72649;SDS011;61467;50.674;4.618;2022-12-29T12:52:42;8.63;;;1.23;;
72649;SDS011;61467;50.674;4.618;2022-12-29T12:55:28;7.95;;;1.25;;
72649;SDS011;61467;50.674;4.618;2022-12-29T12:58:07;5.45;;;0.90;;
72649;SDS011;61467;50.674;4.618;2022-12-29T13:00:46;8.05;;;1.50;;
72649;SDS011;61467;50.674;4.618;2022-12-29T13:03:26;9.23;;;1.47;;
72649;SDS011;61467;50.674;4.618;2022-12-29T13:06:04;10.07;;;1.52;;
72649;SDS011;61467;50.674;4.618;2022-12-29T13:08:48;9.43;;;1.40;;
72649;SDS011;61467;50.674;4.618;2022-12-29T13:11:28;11.73;;;1.25;;
72649;SDS011;61467;50.674;4.618;2022-12-29T13:14:14;7.38;;;1.08;;
72649;SDS011;61467;50.674;4.618;2022-12-29T13:16:51;9.37;;;1.23;;
72649;SDS011;61467;50.674;4.618;2022-12-29T13:19:25;9.85;;;1.45;;
72649;SDS011;61467;50.674;4.618;2022-12-29T13:22:00;10.23;;;1.55;;
72649;SDS011;61467;50.674;4.618;2022-12-29T13:24:35;5.28;;;0.90;;
72649;SDS011;61467;50.674;4.618;2022-12-29T13:27:15;7.60;;;1.25;;
72649;SDS011;61467;50.674;4.618;2022-12-29T13:29:50;7.67;;;1.20;;
72649;SDS011;61467;50.674;4.618;2022-12-29T13:32:27;9.82;;;1.60;;
72649;SDS011;61467;50.674;4.618;2022-12-29T13:35:10;12.35;;;1.67;;
72649;SDS011;61467;50.674;4.618;2022-12-29T13:37:47;9.38;;;1.20;;
72649;SDS011;61467;50.674;4.618;2022-12-29T13:40:21;8.80;;;1.88;;
72649;SDS011;61467;50.674;4.618;2022-12-29T13:42:51;7.97;;;1.40;;
72649;SDS011;61467;50.674;4.618;2022-12-29T13:45:21;8.52;;;1.10;;
72649;SDS011;61467;50.674;4.618;2022-12-29T13:47:52;9.98;;;1.55;;
72649;SDS011;61467;50.674;4.618;2022-12-29T13:50:24;11.50;;;1.73;;
72649;SDS011;61467;50.674;4.618;2022-12-29T13:52:55;13.82;;;2.25;;
72649;SDS011;61467;50.674;4.618;2022-12-29T13:55:29;13.33;;;1.60;;
72649;SDS011;61467;50.674;4.618;2022-12-29T13:58:03;15.35;;;1.65;;
72649;SDS011;61467;50.674;4.618;2022-12-29T14:00:38;11.20;;;1.50;;
72649;SDS011;61467;50.674;4.618;2022-12-29T14:03:17;14.25;;;1.52;;
72649;SDS011;61467;50.674;4.618;2022-12-29T14:06:03;11.07;;;1.83;;
72649;SDS011;61467;50.674;4.618;2022-12-29T14:08:37;15.77;;;1.80;;
72649;SDS011;61467;50.674;4.618;2022-12-29T14:11:07;9.40;;;1.38;;
72649;SDS011;61467;50.674;4.618;2022-12-29T14:13:39;10.02;;;1.67;;
72649;SDS011;61467;50.674;4.618;2022-12-29T14:16:10;15.20;;;1.60;;
72649;SDS011;61467;50.674;4.618;2022-12-29T14:18:50;9.65;;;1.50;;
72649;SDS011;61467;50.674;4.618;2022-12-29T14:21:19;14.90;;;2.00;;
72649;SDS011;61467;50.674;4.618;2022-12-29T14:23:52;8.73;;;1.85;;
72649;SDS011;61467;50.674;4.618;2022-12-29T14:26:32;12.23;;;1.48;;
72649;SDS011;61467;50.674;4.618;2022-12-29T14:32:09;11.13;;;1.40;;
72649;SDS011;61467;50.674;4.618;2022-12-29T14:38:13;7.18;;;1.25;;
72649;SDS011;61467;50.674;4.618;2022-12-29T14:40:46;12.18;;;1.77;;
72649;SDS011;61467;50.674;4.618;2022-12-29T14:43:16;7.22;;;1.40;;
72649;SDS011;61467;50.674;4.618;2022-12-29T14:45:54;13.88;;;1.80;;
72649;SDS011;61467;50.674;4.618;2022-12-29T14:48:32;11.23;;;1.80;;
72649;SDS011;61467;50.674;4.618;2022-12-29T14:51:02;10.55;;;1.23;;
72649;SDS011;61467;50.674;4.618;2022-12-29T14:53:46;13.05;;;1.52;;
72649;SDS011;61467;50.674;4.618;2022-12-29T14:56:15;12.05;;;1.77;;
72649;SDS011;61467;50.674;4.618;2022-12-29T14:58:44;11.43;;;1.70;;
72649;SDS011;61467;50.674;4.618;2022-12-29T15:01:19;14.00;;;2.03;;
72649;SDS011;61467;50.674;4.618;2022-12-29T15:03:51;10.85;;;1.95;;
72649;SDS011;61467;50.674;4.618;2022-12-29T15:06:23;12.05;;;1.75;;
72649;SDS011;61467;50.674;4.618;2022-12-29T15:08:54;15.63;;;1.60;;
72649;SDS011;61467;50.674;4.618;2022-12-29T15:11:28;11.13;;;1.70;;
72649;SDS011;61467;50.674;4.618;2022-12-29T15:16:57;11.00;;;1.80;;
72649;SDS011;61467;50.674;4.618;2022-12-29T15:19:26;11.70;;;1.50;;
72649;SDS011;61467;50.674;4.618;2022-12-29T15:21:54;12.63;;;1.88;;
72649;SDS011;61467;50.674;4.618;2022-12-29T15:24:22;10.18;;;1.63;;
72649;SDS011;61467;50.674;4.618;2022-12-29T15:26:50;15.50;;;1.80;;